Time;durP1;ratioP1;P1;durP2;ratioP2;P2;SDS_P1;SDS_P2;PMS_P1;PMS_P2;Temp;Humidity;BMP_temperature;BMP_pressure;BME280_temperature;BME280_humidity;BME280_pressure;Samples;Min_cycle;Max_cycle;Signal;HPM_P1;HPM_P2
2022/05/28 00:01:10;;;;;;;;;10.00;9.00;;;;;-147.17;100.00;59696.56;4989653;28;9371;-71
2022/05/28 00:03:36;;;;;;;;;6.67;6.00;;;;;-147.17;100.00;59696.56;4986178;28;9379;-71
2022/05/28 00:06:02;;;;;;;;;7.33;7.00;;;;;-147.17;100.00;59696.56;4991873;28;9409;-70
2022/05/28 00:08:28;;;;;;;;;6.50;6.00;;;;;-147.17;100.00;59696.56;4990153;28;8836;-70
2022/05/28 00:10:57;;;;;;;;;17.75;17.75;;;;;-147.17;100.00;59696.56;4990715;28;9593;-70
2022/05/28 00:13:23;;;;;;;;;8.00;8.00;;;;;-147.17;100.00;59696.56;4985440;28;8809;-71
2022/05/28 00:15:49;;;;;;;;;7.67;7.00;;;;;-147.17;100.00;59696.56;4992495;28;10543;-70
2022/05/28 00:18:15;;;;;;;;;7.00;7.00;;;;;-147.17;100.00;59696.56;4991875;28;11472;-69
2022/05/28 00:20:41;;;;;;;;;7.00;7.00;;;;;-147.17;100.00;59696.56;4991594;28;9516;-71
2022/05/28 00:23:06;;;;;;;;;8.00;8.00;;;;;-147.17;100.00;59696.56;4995716;28;9571;-72
2022/05/28 00:25:32;;;;;;;;;7.25;6.00;;;;;-147.17;100.00;59696.56;4995219;28;8822;-71
2022/05/28 00:27:57;;;;;;;;;10.67;9.67;;;;;-147.17;100.00;59696.56;4994022;28;8832;-70
2022/05/28 00:30:23;;;;;;;;;7.33;7.33;;;;;-147.17;100.00;59696.56;4992481;28;8891;-71
2022/05/28 00:32:48;;;;;;;;;12.33;8.00;;;;;-147.17;100.00;59696.56;4993068;28;8871;-71
2022/05/28 00:35:19;;;;;;;;;11.50;9.75;;;;;-147.17;100.00;59696.56;4992217;28;8951;-70
2022/05/28 00:37:46;;;;;;;;;11.00;9.25;;;;;-147.17;100.00;59696.56;4992669;28;8834;-72
2022/05/28 00:40:24;;;;;;;;;11.00;10.50;;;;;-147.17;100.00;59696.56;4991186;28;9499;-70
2022/05/28 00:42:50;;;;;;;;;10.00;10.00;;;;;-147.17;100.00;59696.56;4992877;28;9486;-70
2022/05/28 00:45:15;;;;;;;;;12.50;10.75;;;;;-147.17;100.00;59696.56;4991751;28;9750;-70
2022/05/28 00:47:49;;;;;;;;;12.50;11.50;;;;;-147.17;100.00;59696.56;4991134;28;11693;-71
2022/05/28 00:50:16;;;;;;;;;14.75;14.50;;;;;-147.17;100.00;59696.56;4991869;28;8811;-71
2022/05/28 00:52:42;;;;;;;;;15.75;12.75;;;;;-147.17;100.00;59696.56;4990775;28;9763;-70
2022/05/28 00:55:08;;;;;;;;;13.00;13.00;;;;;-147.17;100.00;59696.56;4974144;28;9929;-70
2022/05/28 00:57:35;;;;;;;;;11.50;10.00;;;;;-147.17;100.00;59696.56;4993059;28;9840;-70
2022/05/28 01:00:00;;;;;;;;;11.00;10.00;;;;;-147.17;100.00;59696.56;4990433;28;9760;-70
2022/05/28 01:02:40;;;;;;;;;12.50;12.00;;;;;-147.17;100.00;59696.56;4990006;28;9583;-69
2022/05/28 01:05:28;;;;;;;;;12.25;11.00;;;;;-147.17;100.00;59696.56;4991403;28;8840;-70
2022/05/28 01:07:57;;;;;;;;;12.25;11.00;;;;;-147.17;100.00;59696.56;4988205;28;10330;-71
2022/05/28 01:10:38;;;;;;;;;10.00;10.00;;;;;-147.17;100.00;59696.56;4987485;28;9628;-71
2022/05/28 01:13:03;;;;;;;;;13.50;12.75;;;;;-147.17;100.00;59696.56;4980387;28;9673;-70
2022/05/28 01:15:33;;;;;;;;;10.67;9.33;;;;;-147.17;100.00;59696.56;4991541;28;9900;-73
2022/05/28 01:18:09;;;;;;;;;9.25;9.25;;;;;-147.17;100.00;59696.56;4979462;28;8935;-72
2022/05/28 01:20:40;;;;;;;;;10.50;8.75;;;;;-147.17;100.00;59696.56;4989910;28;9831;-71
2022/05/28 01:23:36;;;;;;;;;11.50;10.25;;;;;-147.17;100.00;59696.56;4990022;28;9566;-71
2022/05/28 01:26:08;;;;;;;;;9.75;9.00;;;;;-147.17;100.00;59696.56;4991462;28;9741;-71
2022/05/28 01:28:42;;;;;;;;;11.50;10.75;;;;;-147.17;100.00;59696.56;4988035;28;9752;-70
2022/05/28 01:31:09;;;;;;;;;10.00;9.00;;;;;-147.17;100.00;59696.56;4987177;28;9736;-70
2022/05/28 01:33:37;;;;;;;;;11.00;8.33;;;;;-147.17;100.00;59696.56;4990637;28;10394;-69
2022/05/28 01:36:06;;;;;;;;;13.00;12.00;;;;;-147.17;100.00;59696.56;4987621;28;9672;-70
2022/05/28 01:38:35;;;;;;;;;10.75;10.25;;;;;-147.17;100.00;59696.56;4990171;28;9797;-71
2022/05/28 01:41:02;;;;;;;;;8.00;6.67;;;;;-147.17;100.00;59696.56;4989495;28;10700;-71
2022/05/28 01:43:33;;;;;;;;;9.25;9.25;;;;;-147.17;100.00;59696.56;4989420;28;9589;-74
2022/05/28 01:45:58;;;;;;;;;8.25;8.25;;;;;-147.17;100.00;59696.56;4990184;28;9866;-73
2022/05/28 01:48:25;;;;;;;;;10.75;10.50;;;;;-147.17;100.00;59696.56;4992124;28;9593;-73
2022/05/28 01:50:53;;;;;;;;;9.00;9.00;;;;;-147.17;100.00;59696.56;4983560;28;8845;-73
2022/05/28 01:56:07;;;;;;;;;10.25;9.00;;;;;-147.17;100.00;59696.56;4984825;28;10622;-73
2022/05/28 01:58:32;;;;;;;;;11.50;11.00;;;;;-147.17;100.00;59696.56;4991504;28;9640;-73
2022/05/28 02:01:00;;;;;;;;;10.50;9.00;;;;;-147.17;100.00;59696.56;4994439;28;9577;-73
2022/05/28 02:03:27;;;;;;;;;9.00;8.00;;;;;-147.17;100.00;59696.56;4993510;28;9612;-72
2022/05/28 02:05:54;;;;;;;;;9.00;9.00;;;;;-147.17;100.00;59696.56;4993783;28;9749;-73
2022/05/28 02:08:20;;;;;;;;;8.00;8.00;;;;;-147.17;100.00;59696.56;4996007;28;9663;-73
2022/05/28 02:10:52;;;;;;;;;9.00;9.00;;;;;-147.17;100.00;59696.56;4995346;28;9590;-72
2022/05/28 02:13:24;;;;;;;;;9.75;8.25;;;;;-147.17;100.00;59696.56;4992219;28;8888;-73
2022/05/28 02:15:57;;;;;;;;;10.50;10.50;;;;;-147.17;100.00;59696.56;4998336;28;9893;-73
2022/05/28 02:18:47;;;;;;;;;10.25;8.50;;;;;-147.17;100.00;59696.56;5000571;28;10489;-73
2022/05/28 02:21:26;;;;;;;;;10.25;9.00;;;;;-147.17;100.00;59696.56;4975184;28;9666;-73
2022/05/28 02:24:08;;;;;;;;;9.00;9.00;;;;;-147.17;100.00;59696.56;4990471;28;9685;-74
2022/05/28 02:26:36;;;;;;;;;11.75;10.75;;;;;-147.17;100.00;59696.56;4989090;28;9899;-74
2022/05/28 02:29:04;;;;;;;;;9.25;9.25;;;;;-147.17;100.00;59696.56;4990475;28;9836;-73
2022/05/28 02:31:32;;;;;;;;;11.00;10.00;;;;;-147.17;100.00;59696.56;4990994;28;9936;-73
2022/05/28 02:33:59;;;;;;;;;8.75;8.00;;;;;-147.17;100.00;59696.56;4991193;28;9729;-73
2022/05/28 02:36:25;;;;;;;;;10.00;9.00;;;;;-147.17;100.00;59696.56;4991497;28;9735;-74
2022/05/28 02:38:52;;;;;;;;;9.00;8.75;;;;;-147.17;100.00;59696.56;4990765;28;9770;-73
2022/05/28 02:41:18;;;;;;;;;9.50;9.00;;;;;-147.17;100.00;59696.56;4991335;28;9667;-73
2022/05/28 02:43:43;;;;;;;;;11.50;10.00;;;;;-147.17;100.00;59696.56;4989633;28;9562;-73
2022/05/28 02:46:09;;;;;;;;;9.00;9.00;;;;;-147.17;100.00;59696.56;4991298;28;9626;-73
2022/05/28 02:48:35;;;;;;;;;11.50;11.50;;;;;-147.17;100.00;59696.56;4990368;28;8822;-73
2022/05/28 02:51:11;;;;;;;;;10.25;9.75;;;;;-147.17;100.00;59696.56;4987113;28;8817;-74
2022/05/28 02:53:38;;;;;;;;;13.25;11.00;;;;;-147.17;100.00;59696.56;4988572;28;8797;-73
2022/05/28 02:56:04;;;;;;;;;9.25;8.50;;;;;-147.17;100.00;59696.56;4991219;28;9984;-73
2022/05/28 02:58:30;;;;;;;;;11.00;9.00;;;;;-147.17;100.00;59696.56;4973506;28;9853;-74
2022/05/28 03:00:57;;;;;;;;;6.00;6.00;;;;;-147.17;100.00;59696.56;4989107;28;9788;-73
2022/05/28 03:03:22;;;;;;;;;20.25;19.25;;;;;-147.17;100.00;59696.56;4989004;28;8793;-73
2022/05/28 03:05:49;;;;;;;;;8.25;8.00;;;;;-147.17;100.00;59696.56;4989103;28;10730;-73
2022/05/28 03:08:15;;;;;;;;;13.00;11.50;;;;;-147.17;100.00;59696.56;4992672;28;8806;-73
2022/05/28 03:10:40;;;;;;;;;9.00;8.00;;;;;-147.17;100.00;59696.56;4989384;28;9854;-73
2022/05/28 03:13:06;;;;;;;;;9.75;9.00;;;;;-147.17;100.00;59696.56;4989832;28;11549;-73
2022/05/28 03:15:32;;;;;;;;;10.50;10.25;;;;;-147.17;100.00;59696.56;4990886;28;8837;-73
2022/05/28 03:17:59;;;;;;;;;13.25;11.00;;;;;-147.17;100.00;59696.56;4985685;28;8869;-73
2022/05/28 03:20:26;;;;;;;;;8.00;8.00;;;;;-147.17;100.00;59696.56;4990901;28;8899;-73
2022/05/28 03:22:51;;;;;;;;;10.50;10.25;;;;;-147.17;100.00;59696.56;4990415;28;9578;-73
2022/05/28 03:25:17;;;;;;;;;10.75;9.50;;;;;-147.17;100.00;59696.56;4988654;28;10041;-73
2022/05/28 03:27:42;;;;;;;;;13.50;11.25;;;;;-147.17;100.00;59696.56;4988974;28;8850;-73
2022/05/28 03:30:08;;;;;;;;;10.00;9.25;;;;;-147.17;100.00;59696.56;4991222;28;8825;-73
2022/05/28 03:32:34;;;;;;;;;11.75;11.75;;;;;-147.17;100.00;59696.56;4988048;28;8802;-73
2022/05/28 03:34:59;;;;;;;;;8.33;8.33;;;;;-147.17;100.00;59696.56;4990646;28;9757;-73
2022/05/28 03:37:24;;;;;;;;;12.75;12.50;;;;;-147.17;100.00;59696.56;4988321;28;8976;-73
2022/05/28 03:39:50;;;;;;;;;11.50;10.50;;;;;-147.17;100.00;59696.56;4986371;28;8882;-73
2022/05/28 03:42:15;;;;;;;;;11.75;9.75;;;;;-147.17;100.00;59696.56;4988899;28;8873;-74
2022/05/28 03:44:40;;;;;;;;;11.50;9.75;;;;;-147.17;100.00;59696.56;4988113;28;8822;-73
2022/05/28 03:47:07;;;;;;;;;9.25;9.25;;;;;-147.17;100.00;59696.56;4991291;28;8842;-72
2022/05/28 03:49:36;;;;;;;;;9.00;9.00;;;;;-147.17;100.00;59696.56;4988689;28;8822;-73
2022/05/28 03:52:02;;;;;;;;;10.00;9.00;;;;;-147.17;100.00;59696.56;4989399;28;9674;-73
2022/05/28 03:54:27;;;;;;;;;8.50;8.50;;;;;-147.17;100.00;59696.56;4987545;28;9733;-73
2022/05/28 03:56:59;;;;;;;;;13.25;9.00;;;;;-147.17;100.00;59696.56;4990527;28;9826;-72
2022/05/28 03:59:25;;;;;;;;;6.75;6.50;;;;;-147.17;100.00;59696.56;4975311;28;9156;-73
2022/05/28 04:01:50;;;;;;;;;12.50;8.50;;;;;-147.17;100.00;59696.56;4993528;28;9750;-73
2022/05/28 04:04:16;;;;;;;;;12.50;10.25;;;;;-147.17;100.00;59696.56;4989856;28;8948;-74
2022/05/28 04:06:42;;;;;;;;;13.00;11.75;;;;;-147.17;100.00;59696.56;4984311;28;8829;-74
2022/05/28 04:09:07;;;;;;;;;11.00;10.00;;;;;-147.17;100.00;59696.56;4991637;28;8950;-74
2022/05/28 04:11:35;;;;;;;;;10.25;10.00;;;;;-147.17;100.00;59696.56;4994594;28;8795;-74
2022/05/28 04:14:01;;;;;;;;;11.75;7.75;;;;;-147.17;100.00;59696.56;4996484;28;9568;-73
2022/05/28 04:16:27;;;;;;;;;7.50;7.50;;;;;-147.17;100.00;59696.56;4991380;28;9866;-73
2022/05/28 04:18:52;;;;;;;;;10.50;10.00;;;;;-147.17;100.00;59696.56;4992098;28;8856;-73
2022/05/28 04:21:18;;;;;;;;;7.25;7.25;;;;;-147.17;100.00;59696.56;4987413;28;8913;-74
2022/05/28 04:23:44;;;;;;;;;8.50;8.50;;;;;-147.17;100.00;59696.56;4989860;28;8823;-75
2022/05/28 04:26:10;;;;;;;;;9.25;8.25;;;;;-147.17;100.00;59696.56;4988412;28;10087;-74
2022/05/28 04:28:35;;;;;;;;;9.00;8.50;;;;;-147.17;100.00;59696.56;4992203;28;8834;-75
2022/05/28 04:31:00;;;;;;;;;9.50;9.25;;;;;-147.17;100.00;59696.56;4989695;28;8821;-75
2022/05/28 04:33:26;;;;;;;;;12.00;10.25;;;;;-147.17;100.00;59696.56;4988648;28;8895;-75
2022/05/28 04:35:51;;;;;;;;;12.50;11.00;;;;;-147.17;100.00;59696.56;4987390;28;8904;-74
2022/05/28 04:38:17;;;;;;;;;13.25;11.25;;;;;-147.17;100.00;59696.56;4989801;28;8861;-74
2022/05/28 04:40:42;;;;;;;;;8.25;8.25;;;;;-147.17;100.00;59696.56;4985522;28;8845;-73
2022/05/28 04:43:08;;;;;;;;;11.75;9.50;;;;;-147.17;100.00;59696.56;4988138;28;9623;-74
2022/05/28 04:45:33;;;;;;;;;12.50;10.75;;;;;-147.17;100.00;59696.56;4989443;28;8846;-74
2022/05/28 04:47:59;;;;;;;;;9.50;9.00;;;;;-147.17;100.00;59696.56;4986898;28;8836;-75
2022/05/28 04:50:24;;;;;;;;;13.50;13.25;;;;;-147.17;100.00;59696.56;4990057;28;8900;-74
2022/05/28 04:52:49;;;;;;;;;10.75;10.75;;;;;-147.17;100.00;59696.56;4987284;28;8895;-75
2022/05/28 04:55:15;;;;;;;;;11.00;9.50;;;;;-147.17;100.00;59696.56;4987972;28;8834;-75
2022/05/28 04:57:40;;;;;;;;;10.00;10.00;;;;;-147.17;100.00;59696.56;4990648;28;8840;-75
2022/05/28 05:00:16;;;;;;;;;12.25;10.25;;;;;-147.17;100.00;59696.56;4992238;28;8825;-73
2022/05/28 05:02:41;;;;;;;;;12.00;9.50;;;;;-147.17;100.00;59696.56;4981601;28;9544;-75
2022/05/28 05:05:08;;;;;;;;;14.25;12.25;;;;;-147.17;100.00;59696.56;4974783;28;9531;-75
2022/05/28 05:07:33;;;;;;;;;13.00;11.00;;;;;-147.17;100.00;59696.56;4991964;28;8901;-74
2022/05/28 05:09:59;;;;;;;;;11.00;10.75;;;;;-147.17;100.00;59696.56;4991613;28;9765;-75
2022/05/28 05:12:24;;;;;;;;;12.00;11.00;;;;;-147.17;100.00;59696.56;4999602;28;8928;-74
2022/05/28 05:14:50;;;;;;;;;11.33;11.00;;;;;-147.17;100.00;59696.56;4992253;28;8857;-71
2022/05/28 05:17:15;;;;;;;;;10.00;10.00;;;;;-147.17;100.00;59696.56;4994597;28;8806;-74
2022/05/28 05:19:40;;;;;;;;;8.00;7.67;;;;;-147.17;100.00;59696.56;4991410;28;8900;-73
2022/05/28 05:22:06;;;;;;;;;11.00;10.50;;;;;-147.17;100.00;59696.56;4991412;28;8833;-75
2022/05/28 05:24:33;;;;;;;;;9.33;8.33;;;;;-147.17;100.00;59696.56;4993226;28;8833;-73
2022/05/28 05:27:00;;;;;;;;;11.33;10.33;;;;;-147.17;100.00;59696.56;4991774;28;8888;-73
2022/05/28 05:29:25;;;;;;;;;11.33;11.33;;;;;-147.17;100.00;59696.56;4981603;28;9438;-73
2022/05/28 05:31:50;;;;;;;;;9.00;9.00;;;;;-147.17;100.00;59696.56;4990369;28;9732;-74
2022/05/28 05:34:16;;;;;;;;;9.33;9.33;;;;;-147.17;100.00;59696.56;4991380;28;8916;-73
2022/05/28 05:36:41;;;;;;;;;12.33;10.67;;;;;-147.17;100.00;59696.56;4991313;28;9533;-74
2022/05/28 05:39:06;;;;;;;;;10.00;9.00;;;;;-147.17;100.00;59696.56;4995557;28;8845;-73
2022/05/28 05:41:32;;;;;;;;;9.00;9.00;;;;;-147.17;100.00;59696.56;4988897;28;8961;-74
2022/05/28 05:43:57;;;;;;;;;11.00;9.67;;;;;-147.17;100.00;59696.56;4991135;28;9687;-73
2022/05/28 05:46:22;;;;;;;;;10.00;8.67;;;;;-147.17;100.00;59696.56;4980524;28;8931;-73
2022/05/28 05:48:48;;;;;;;;;8.00;8.00;;;;;-147.17;100.00;59696.56;4991007;28;8833;-74
2022/05/28 05:51:16;;;;;;;;;9.33;9.33;;;;;-147.17;100.00;59696.56;4989635;28;8994;-74
2022/05/28 05:53:42;;;;;;;;;13.33;9.67;;;;;-147.17;100.00;59696.56;4996903;28;8815;-74
2022/05/28 05:56:08;;;;;;;;;10.33;9.00;;;;;-147.17;100.00;59696.56;4994826;28;9328;-73
2022/05/28 05:58:34;;;;;;;;;8.67;7.67;;;;;-147.17;100.00;59696.56;4995440;28;9094;-75
2022/05/28 06:01:04;;;;;;;;;7.00;7.00;;;;;-147.17;100.00;59696.56;4994120;28;8994;-73
2022/05/28 06:03:30;;;;;;;;;8.00;8.00;;;;;-147.17;100.00;59696.56;4996075;28;9773;-74
2022/05/28 06:05:59;;;;;;;;;9.67;8.33;;;;;-147.17;100.00;59696.56;4976291;28;8967;-74
2022/05/28 06:08:25;;;;;;;;;11.33;9.67;;;;;-147.17;100.00;59696.56;4995970;28;8809;-74
2022/05/28 06:10:51;;;;;;;;;8.00;8.00;;;;;-147.17;100.00;59696.56;4994968;28;9100;-75
2022/05/28 06:13:16;;;;;;;;;9.00;9.00;;;;;-147.17;100.00;59696.56;4991519;28;9052;-73
2022/05/28 06:15:42;;;;;;;;;11.00;10.33;;;;;-147.17;100.00;59696.56;4987953;28;8830;-74
2022/05/28 06:18:07;;;;;;;;;9.33;8.67;;;;;-147.17;100.00;59696.56;4989105;28;8829;-74
2022/05/28 06:20:34;;;;;;;;;10.33;9.33;;;;;-147.17;100.00;59696.56;4991838;28;8825;-74
2022/05/28 06:23:00;;;;;;;;;12.00;10.00;;;;;-147.17;100.00;59696.56;4970204;28;9645;-75
2022/05/28 06:25:25;;;;;;;;;9.00;9.00;;;;;-147.17;100.00;59696.56;4987898;28;9145;-74
2022/05/28 06:27:51;;;;;;;;;10.00;8.00;;;;;-147.17;100.00;59696.56;4986718;28;8867;-74
2022/05/28 06:30:17;;;;;;;;;9.33;8.33;;;;;-147.17;100.00;59696.56;4967520;28;9563;-74
2022/05/28 06:32:42;;;;;;;;;7.33;6.33;;;;;-147.17;100.00;59696.56;4988715;28;8939;-73
2022/05/28 06:35:08;;;;;;;;;9.00;8.67;;;;;-147.17;100.00;59696.56;4988151;28;8896;-73
2022/05/28 06:37:34;;;;;;;;;8.50;8.00;;;;;-147.17;100.00;59696.56;4988171;28;9572;-73
2022/05/28 06:39:59;;;;;;;;;8.00;6.33;;;;;-147.17;100.00;59696.56;4989663;28;8818;-72
2022/05/28 06:42:24;;;;;;;;;11.67;9.33;;;;;-147.17;100.00;59696.56;4988487;28;8837;-71
2022/05/28 06:44:50;;;;;;;;;9.67;8.00;;;;;-147.17;100.00;59696.56;4991872;28;9595;-71
2022/05/28 06:47:15;;;;;;;;;10.00;8.67;;;;;-147.17;100.00;59696.56;4969242;28;8857;-72
2022/05/28 06:49:41;;;;;;;;;9.67;8.00;;;;;-147.17;100.00;59696.56;4988868;28;8829;-73
2022/05/28 06:52:06;;;;;;;;;9.00;7.67;;;;;-147.17;100.00;59696.56;4988630;28;8830;-73
2022/05/28 06:54:32;;;;;;;;;9.67;8.33;;;;;-147.17;100.00;59696.56;4990199;28;8853;-74
2022/05/28 06:56:57;;;;;;;;;9.67;9.33;;;;;-147.17;100.00;59696.56;4988100;28;8826;-73
2022/05/28 06:59:23;;;;;;;;;9.00;9.00;;;;;-147.17;100.00;59696.56;4989675;28;8837;-73
2022/05/28 07:01:48;;;;;;;;;11.33;10.67;;;;;-147.17;100.00;59696.56;4984921;28;9572;-73
2022/05/28 07:04:13;;;;;;;;;10.67;10.33;;;;;-147.17;100.00;59696.56;4990053;28;8841;-74
2022/05/28 07:06:39;;;;;;;;;11.33;10.00;;;;;-147.17;100.00;59696.56;4990126;28;8829;-72
2022/05/28 07:09:07;;;;;;;;;8.00;7.33;;;;;-147.17;100.00;59696.56;4988546;28;8833;-73
2022/05/28 07:11:33;;;;;;;;;10.00;9.25;;;;;-147.17;100.00;59696.56;4985529;28;8818;-74
2022/05/28 07:13:59;;;;;;;;;12.33;10.33;;;;;-147.17;100.00;59696.56;4987108;28;8810;-74
2022/05/28 07:16:24;;;;;;;;;9.00;8.67;;;;;-147.17;100.00;59696.56;4992304;28;8844;-73
2022/05/28 07:18:50;;;;;;;;;11.33;10.33;;;;;-147.17;100.00;59696.56;4990031;28;8873;-73
2022/05/28 07:21:15;;;;;;;;;9.33;8.67;;;;;-147.17;100.00;59696.56;4987914;28;8810;-73
2022/05/28 07:23:41;;;;;;;;;12.00;11.00;;;;;-147.17;100.00;59696.56;4985468;28;8809;-73
2022/05/28 07:26:16;;;;;;;;;10.00;9.33;;;;;-147.17;100.00;59696.56;4989714;28;8813;-72
2022/05/28 07:28:43;;;;;;;;;10.67;10.00;;;;;-147.17;100.00;59696.56;4969394;28;9557;-73
2022/05/28 07:31:18;;;;;;;;;9.25;8.25;;;;;-147.17;100.00;59696.56;4969973;28;8987;-74
2022/05/28 07:33:45;;;;;;;;;11.25;10.75;;;;;-147.17;100.00;59696.56;4986848;28;8786;-73
2022/05/28 07:36:13;;;;;;;;;15.00;13.33;;;;;-147.17;100.00;59696.56;4987784;28;8818;-73
2022/05/28 07:38:39;;;;;;;;;10.67;10.67;;;;;-147.17;100.00;59696.56;4987580;28;9461;-73
2022/05/28 07:41:12;;;;;;;;;10.00;10.00;;;;;-147.17;100.00;59696.56;4980036;28;8962;-73
2022/05/28 07:43:39;;;;;;;;;9.00;8.00;;;;;-147.17;100.00;59696.56;4988812;28;11525;-72
2022/05/28 07:46:13;;;;;;;;;10.33;10.00;;;;;-147.17;100.00;59696.56;4989650;28;9091;-71
2022/05/28 07:48:38;;;;;;;;;10.50;10.25;;;;;-147.17;100.00;59696.56;4972235;28;8947;-72
2022/05/28 07:51:03;;;;;;;;;8.00;8.00;;;;;-147.17;100.00;59696.56;4984882;28;8896;-73
2022/05/28 07:53:29;;;;;;;;;8.67;7.33;;;;;-147.17;100.00;59696.56;4989447;28;9591;-73
2022/05/28 07:55:54;;;;;;;;;8.33;8.00;;;;;-147.17;100.00;59696.56;4992633;28;8829;-73
2022/05/28 07:58:20;;;;;;;;;12.33;11.33;;;;;-147.17;100.00;59696.56;4992326;28;8844;-74
2022/05/28 08:00:49;;;;;;;;;9.00;7.25;;;;;-147.17;100.00;59696.56;4992383;28;8887;-73
2022/05/28 08:03:16;;;;;;;;;8.75;8.25;;;;;-147.17;100.00;59696.56;4988454;28;8817;-74
2022/05/28 08:05:44;;;;;;;;;7.50;7.50;;;;;-147.17;100.00;59696.56;4989141;28;8802;-73
2022/05/28 08:08:10;;;;;;;;;7.25;7.00;;;;;-147.17;100.00;59696.56;4993524;28;8806;-73
2022/05/28 08:10:36;;;;;;;;;8.25;7.00;;;;;-147.17;100.00;59696.56;4994354;28;8805;-73
2022/05/28 08:13:04;;;;;;;;;10.67;8.67;;;;;-147.17;100.00;59696.56;4989647;28;8837;-73
2022/05/28 08:15:30;;;;;;;;;11.00;10.33;;;;;-147.17;100.00;59696.56;4987136;28;8761;-73
2022/05/28 08:17:56;;;;;;;;;7.33;7.33;;;;;-147.17;100.00;59696.56;4989344;28;9004;-76
2022/05/28 08:23:08;;;;;;;;;8.00;7.33;;;;;-147.17;100.00;59696.56;4989550;28;8845;-76
2022/05/28 08:23:11;;;;;;;;;9.67;9.67;;;;;-147.17;100.00;59696.56;4987259;28;8817;-74
2022/05/28 08:25:40;;;;;;;;;8.67;8.67;;;;;-147.17;100.00;59696.56;4990254;28;8873;-74
2022/05/28 08:28:08;;;;;;;;;8.50;8.50;;;;;-147.17;100.00;59696.56;4989582;28;8960;-74
2022/05/28 08:30:34;;;;;;;;;10.00;8.75;;;;;-147.17;100.00;59696.56;4989538;28;9654;-75
2022/05/28 08:33:00;;;;;;;;;9.00;8.75;;;;;-147.17;100.00;59696.56;4971077;28;8817;-75
2022/05/28 08:35:25;;;;;;;;;8.00;7.00;;;;;-147.17;100.00;59696.56;4993858;28;8837;-75
2022/05/28 08:37:50;;;;;;;;;13.00;11.33;;;;;-147.17;100.00;59696.56;4992921;28;8838;-74
2022/05/28 08:40:16;;;;;;;;;13.67;12.67;;;;;-147.17;100.00;59696.56;4995453;28;8814;-74
2022/05/28 08:42:42;;;;;;;;;12.67;12.00;;;;;-147.17;100.00;59696.56;4995688;28;8818;-76
2022/05/28 08:45:10;;;;;;;;;9.00;8.33;;;;;-147.17;100.00;59696.56;4974618;28;8804;-73
2022/05/28 08:47:40;;;;;;;;;10.25;9.25;;;;;-147.17;100.00;59696.56;4991863;28;8889;-74
2022/05/28 08:50:07;;;;;;;;;8.50;8.00;;;;;-147.17;100.00;59696.56;4993729;28;8809;-74
2022/05/28 08:52:43;;;;;;;;;10.67;9.67;;;;;-147.17;100.00;59696.56;4985334;28;8797;-75
2022/05/28 08:55:15;;;;;;;;;11.67;10.67;;;;;-147.17;100.00;59696.56;4993361;28;8880;-74
2022/05/28 08:57:57;;;;;;;;;9.00;8.75;;;;;-147.17;100.00;59696.56;4992997;28;8906;-74
2022/05/28 09:00:38;;;;;;;;;11.00;9.00;;;;;-147.17;100.00;59696.56;4993196;28;8801;-74
2022/05/28 09:03:09;;;;;;;;;9.25;9.00;;;;;-147.17;100.00;59696.56;4977869;28;8847;-74
2022/05/28 09:05:43;;;;;;;;;11.00;10.00;;;;;-147.17;100.00;59696.56;4983955;28;8809;-75
2022/05/28 09:08:10;;;;;;;;;10.25;9.75;;;;;-147.17;100.00;59696.56;4992738;28;8983;-74
2022/05/28 09:10:45;;;;;;;;;12.00;10.67;;;;;-147.17;100.00;59696.56;4992806;28;8876;-75
2022/05/28 09:13:24;;;;;;;;;11.75;10.00;;;;;-147.17;100.00;59696.56;4985762;28;8980;-75
2022/05/28 09:15:51;;;;;;;;;10.00;9.33;;;;;-147.17;100.00;59696.56;4992341;28;8829;-75
2022/05/28 09:18:19;;;;;;;;;10.00;9.33;;;;;-147.17;100.00;59696.56;4993161;28;8905;-75
2022/05/28 09:20:47;;;;;;;;;9.67;7.67;;;;;-147.17;100.00;59696.56;4992267;28;8887;-74
2022/05/28 09:23:13;;;;;;;;;11.67;10.67;;;;;-147.17;100.00;59696.56;4973556;28;8902;-74
2022/05/28 09:25:43;;;;;;;;;11.67;10.00;;;;;-147.17;100.00;59696.56;4992493;28;9136;-74
2022/05/28 09:28:43;;;;;;;;;9.00;9.00;;;;;-147.17;100.00;59696.56;4991586;28;8843;-74
2022/05/28 09:31:25;;;;;;;;;10.67;9.67;;;;;-147.17;100.00;59696.56;4913480;29;8898;-74
2022/05/28 09:34:30;;;;;;;;;11.00;10.25;;;;;-147.17;100.00;59696.56;4983274;28;8896;-74
2022/05/28 09:37:06;;;;;;;;;8.50;7.25;;;;;-147.17;100.00;59696.56;4963027;28;9263;-76
2022/05/28 09:39:58;;;;;;;;;7.33;7.33;;;;;-147.17;100.00;59696.56;4990557;28;8847;-75
2022/05/28 09:42:53;;;;;;;;;7.25;7.00;;;;;-147.17;100.00;59696.56;4992343;28;8983;-76
2022/05/28 09:45:33;;;;;;;;;9.67;8.00;;;;;-147.17;100.00;59696.56;4990899;28;9683;-75
2022/05/28 09:48:00;;;;;;;;;10.33;7.00;;;;;-147.17;100.00;59696.56;4993608;28;9085;-74
2022/05/28 09:50:28;;;;;;;;;9.75;8.75;;;;;-147.17;100.00;59696.56;4994400;28;9074;-74
2022/05/28 09:56:23;;;;;;;;;11.50;10.50;;;;;-147.17;100.00;59696.56;4988563;28;8786;-73
2022/05/28 09:58:49;;;;;;;;;9.25;7.25;;;;;-147.17;100.00;59696.56;4990608;28;8810;-78
2022/05/28 10:01:23;;;;;;;;;9.25;8.50;;;;;-147.17;100.00;59696.56;4995812;28;8805;-76
2022/05/28 10:06:47;;;;;;;;;6.25;6.25;;;;;-147.17;100.00;59696.56;4992888;28;8960;-78
2022/05/28 10:09:19;;;;;;;;;8.00;8.00;;;;;-147.17;100.00;59696.56;4989286;28;8806;-75
2022/05/28 10:11:56;;;;;;;;;10.25;7.75;;;;;-147.17;100.00;59696.56;4987807;28;9164;-75
2022/05/28 10:14:23;;;;;;;;;11.00;10.67;;;;;-147.17;100.00;59696.56;4995463;28;8825;-77
2022/05/28 10:16:54;;;;;;;;;8.75;8.00;;;;;-147.17;100.00;59696.56;4994870;28;8868;-77
2022/05/28 10:19:26;;;;;;;;;10.33;9.67;;;;;-147.17;100.00;59696.56;4993626;28;8887;-78
2022/05/28 10:21:55;;;;;;;;;10.00;8.00;;;;;-147.17;100.00;59696.56;4992359;28;8920;-77
2022/05/28 10:24:24;;;;;;;;;9.67;9.00;;;;;-147.17;100.00;59696.56;4992536;28;8824;-76
2022/05/28 10:26:56;;;;;;;;;13.33;11.33;;;;;-147.17;100.00;59696.56;4992546;28;8884;-76
2022/05/28 10:29:39;;;;;;;;;12.00;11.33;;;;;-147.17;100.00;59696.56;4991470;28;8943;-77
2022/05/28 10:32:34;;;;;;;;;10.00;9.00;;;;;-147.17;100.00;59696.56;4992360;28;9188;-77
2022/05/28 10:35:01;;;;;;;;;7.67;7.00;;;;;-147.17;100.00;59696.56;4991633;28;8879;-77
2022/05/28 10:37:26;;;;;;;;;6.67;6.00;;;;;-147.17;100.00;59696.56;4990411;28;8920;-77
2022/05/28 10:40:11;;;;;;;;;8.67;7.67;;;;;-147.17;100.00;59696.56;4989443;28;8949;-76
2022/05/28 10:42:37;;;;;;;;;8.25;7.00;;;;;-147.17;100.00;59696.56;4989032;28;8817;-76
2022/05/28 10:45:05;;;;;;;;;10.00;7.67;;;;;-147.17;100.00;59696.56;4990331;28;8821;-76
2022/05/28 10:47:36;;;;;;;;;13.00;12.67;;;;;-147.17;100.00;59696.56;4979733;28;8814;-76
2022/05/28 10:50:22;;;;;;;;;42.25;36.50;;;;;-147.17;100.00;59696.56;4989683;28;9287;-76
2022/05/28 10:53:17;;;;;;;;;7.00;7.00;;;;;-147.17;100.00;59696.56;4991009;28;11510;-75
2022/05/28 10:56:12;;;;;;;;;7.00;7.00;;;;;-147.17;100.00;59696.56;4964261;28;9690;-77
2022/05/28 10:58:58;;;;;;;;;5.67;5.67;;;;;-147.17;100.00;59696.56;4974114;28;8833;-75
2022/05/28 11:01:39;;;;;;;;;5.50;5.00;;;;;-147.17;100.00;59696.56;4988328;28;8892;-76
2022/05/28 11:04:17;;;;;;;;;7.00;6.25;;;;;-147.17;100.00;59696.56;4981761;28;8794;-76
2022/05/28 11:07:01;;;;;;;;;6.00;6.00;;;;;-147.17;100.00;59696.56;4990896;28;8826;-75
2022/05/28 11:09:51;;;;;;;;;6.75;6.00;;;;;-147.17;100.00;59696.56;4991012;28;8821;-76
2022/05/28 11:12:48;;;;;;;;;8.50;7.50;;;;;-147.17;100.00;59696.56;4972202;28;8792;-76
2022/05/28 11:15:35;;;;;;;;;7.00;7.00;;;;;-147.17;100.00;59696.56;4979727;28;8794;-76
2022/05/28 11:18:11;;;;;;;;;7.00;7.00;;;;;-147.17;100.00;59696.56;4989298;28;8802;-75
2022/05/28 11:21:15;;;;;;;;;11.00;9.50;;;;;-147.17;100.00;59696.56;4989524;28;8901;-77
2022/05/28 11:24:18;;;;;;;;;8.33;8.00;;;;;-147.17;100.00;59696.56;4984536;28;8801;-74
2022/05/28 11:27:28;;;;;;;;;8.75;8.00;;;;;-147.17;100.00;59696.56;4989781;28;8958;-75
2022/05/28 11:30:06;;;;;;;;;8.00;8.00;;;;;-147.17;100.00;59696.56;4892373;29;9607;-73